• Join FlightAware (Why Join?)
  • Login
  • US Flag 
02:29AM EDT


 

Airport Tracker/Info


-or-


 

Live Flight TrackerFlight Track Log ✈ N510SR ✈ 30-Sep-2013 ✈ KTEB - KNEW

Flight Track Log - Related Links

Times and Time Zones

All times are in EDT time to prevent confusion due to time zone crossing. See the N510SR flight status page for this flight to view local times or setup timezone preferences in your user account.

Time Position Orientation Groundspeed Altitude Reporting Facility
EDT Latitude Longitude Course Direction KTS MPH feet Rate Location/Type
04:09PM 40.9308 -74.0422 North 246 283 2,600  Level New York Center
04:10PM 40.9261 -74.1408 266° West 261 300 4,500 1,200 Climbing New York Center
04:11PM 40.8833 -74.2500 243° Southwest 274 315 5,300 1,440 Climbing New York TRACON
04:12PM 40.8333 -74.3167 225° Southwest 283 326 7,800 2,280 Climbing New York TRACON
04:14PM 40.7197 -74.4264 216° Southwest 312 359 11,800 2,400 Climbing New York Center
04:15PM 40.6739 -74.5581 245° Southwest 352 405 14,500 2,580 Climbing New York Center
04:16PM 40.6447 -74.6794 252° West 381 438 17,000 2,280 Climbing New York Center
04:17PM 40.6003 -74.8272 248° West 401 461 19,100 2,100 Climbing New York Center
04:18PM 40.5211 -74.9428 228° Southwest 409 471 21,200 1,920 Climbing New York Center
04:19PM 40.4419 -75.0633 229° Southwest 424 488 23,000 1,680 Climbing New York Center
04:20PM 40.3581 -75.1861 228° Southwest 443 510 24,600 1,800 Climbing New York Center
04:21PM 40.2742 -75.3142 229° Southwest 464 534 26,600 2,160 Climbing New York Center
04:22PM 40.1761 -75.4217 220° Southwest 470 541 29,000 2,280 Climbing New York Center
04:23PM 40.0839 -75.5403 225° Southwest 465 535 31,200 2,340 Climbing New York Center
04:24PM 40.0081 -75.6600 230° Southwest 459 528 33,700 2,100 Climbing New York Center
04:25PM 39.9361 -75.7847 233° Southwest 446 513 35,500 1,320 Climbing New York Center
04:26PM 39.8706 -75.9044 235° Southwest 441 507 36,400 1,440 Climbing New York Center
04:27PM 39.7942 -76.0286 231° Southwest 446 513 38,400 1,080 Climbing New York Center
04:29PM 39.6261 -76.3108 232° Southwest 457 526 40,000 480 Climbing Washington Center
04:30PM 39.5522 -76.4419 234° Southwest 457 526 40,000  Level Washington Center
04:31PM 39.4700 -76.5728 231° Southwest 462 532 40,100  Climbing Washington Center
04:32PM 39.3875 -76.7114 232° Southwest 472 543 40,100  Level Washington Center
04:33PM 39.3050 -76.8469 232° Southwest 478 550 40,100  Level Washington Center
04:34PM 39.2242 -76.9819 232° Southwest 485 558 40,100  Level Washington Center
04:35PM 39.1433 -77.1144 232° Southwest 485 558 40,100  Level Washington Center
04:36PM 39.0625 -77.2492 232° Southwest 485 558 40,100  Level Washington Center
04:37PM 38.9772 -77.3861 231° Southwest 485 558 40,100  Level Washington Center
04:38PM 38.8958 -77.5147 231° Southwest 480 552 40,100  Level Washington Center
04:39PM 38.8122 -77.6592 233° Southwest 493 567 40,100  Level Washington Center
04:40PM 38.7308 -77.7844 230° Southwest 498 573 40,100  Level Washington Center
04:41PM 38.6511 -77.9178 233° Southwest 498 573 40,100  Level Washington Center
04:42PM 38.5672 -78.0558 232° Southwest 498 573 40,100  Level Washington Center
04:43PM 38.4831 -78.1908 231° Southwest 498 573 40,100  Level Washington Center
04:44PM 38.3986 -78.3258 231° Southwest 498 573 40,100  Level Washington Center
04:45PM 38.3119 -78.4603 231° Southwest 498 573 40,100  Level Washington Center
04:46PM 38.2228 -78.6128 233° Southwest 498 573 40,100  Level Washington Center
04:47PM 38.1358 -78.7492 231° Southwest 498 573 40,100  Level Washington Center
04:48PM 38.0619 -78.8672 232° Southwest 498 573 40,100  Level Washington Center
04:49PM 37.9725 -79.0031 230° Southwest 498 573 40,100  Level Washington Center
04:50PM 37.8936 -79.1389 234° Southwest 498 573 40,100  Level Washington Center
04:51PM 37.8114 -79.2981 237° Southwest 493 567 40,100  Level Washington Center
04:52PM 37.7403 -79.4417 238° Southwest 493 567 40,100  Level Washington Center
04:53PM 37.6647 -79.5847 236° Southwest 493 567 40,100  Level Washington Center
04:54PM 37.5997 -79.7150 238° Southwest 493 567 40,100  Level Washington Center
04:55PM 37.5256 -79.8656 238° Southwest 498 573 40,100  Level Washington Center
04:56PM 37.4406 -80.0256 236° Southwest 503 579 40,100  Level Washington Center
04:57PM 37.3706 -80.1653 238° Southwest 496 571 40,100  Level Washington Center
04:58PM 37.2983 -80.3044 237° Southwest 496 571 40,100  Level Washington Center
04:59PM 37.2117 -80.4686 236° Southwest 482 555 40,100  Level Atlanta Center
05:00PM 37.1386 -80.6125 238° Southwest 482 555 40,100  Level Atlanta Center
05:01PM 37.0797 -80.7453 241° Southwest 492 566 40,100  Level Atlanta Center
05:02PM 37.0189 -80.8933 243° Southwest 492 566 40,100  Level Atlanta Center
05:03PM 36.9622 -81.0489 246° West 492 566 40,100  Level Atlanta Center
05:04PM 36.9097 -81.2014 247° West 487 560 40,100  Level Atlanta Center
05:05PM 36.8278 -81.3600 237° Southwest 492 566 40,100  Level Atlanta Center
05:06PM 36.7658 -81.4864 239° Southwest 497 572 40,100  Level Atlanta Center
05:07PM 36.6894 -81.6311 237° Southwest 492 566 40,100  Level Atlanta Center
05:08PM 36.6131 -81.7706 236° Southwest 497 572 40,100  Level Atlanta Center
05:09PM 36.5383 -81.9122 237° Southwest 497 572 40,100  Level Atlanta Center
05:10PM 36.4553 -82.0694 237° Southwest 497 572 40,100  Level Atlanta Center
05:11PM 36.3761 -82.2078 235° Southwest 497 572 40,100  Level Atlanta Center
05:12PM 36.3011 -82.3489 237° Southwest 497 572 40,200 900 Climbing Atlanta Center
05:13PM 36.2278 -82.4867 237° Southwest 492 566 42,000 1,440 Climbing Atlanta Center
05:14PM 36.1564 -82.6142 235° Southwest 481 554 43,100 540 Climbing Atlanta Center
05:15PM 36.0889 -82.7411 237° Southwest 457 526 43,100  Level Atlanta Center
05:16PM 36.0153 -82.8733 235° Southwest 457 526 43,100  Level Atlanta Center
05:17PM 35.9453 -83.0000 236° Southwest 457 526 43,100  Level Atlanta Center
05:18PM 35.8756 -83.1289 236° Southwest 457 526 43,100  Level Atlanta Center
05:19PM 35.8136 -83.2450 237° Southwest 457 526 43,100  Level Atlanta Center
05:20PM 35.7414 -83.3736 235° Southwest 457 526 43,100  Level Atlanta Center
05:21PM 35.6711 -83.4994 236° Southwest 457 526 43,100  Level Atlanta Center
05:22PM 35.5967 -83.6275 234° Southwest 457 526 43,100  Level Atlanta Center
05:23PM 35.5239 -83.7556 235° Southwest 457 526 43,100  Level Atlanta Center
05:24PM 35.4533 -83.8833 236° Southwest 462 532 43,100  Level Atlanta Center
05:25PM 35.3825 -84.0108 236° Southwest 462 532 43,100  Level Atlanta Center
05:26PM 35.3094 -84.1381 235° Southwest 462 532 43,100  Level Atlanta Center
05:27PM 35.2383 -84.2625 235° Southwest 462 532 43,100  Level Atlanta Center
05:28PM 35.1650 -84.3869 234° Southwest 462 532 43,100  Level Atlanta Center
05:29PM 35.0914 -84.5133 235° Southwest 462 532 43,100  Level Atlanta Center
05:30PM 35.0219 -84.6372 236° Southwest 462 532 43,100  Level Atlanta Center
05:31PM 34.9483 -84.7608 234° Southwest 457 526 43,100  Level Atlanta Center
05:32PM 34.8767 -84.8869 235° Southwest 457 526 43,100  Level Atlanta Center
05:33PM 34.7983 -85.0203 234° Southwest 457 526 43,100  Level Atlanta Center
05:34PM 34.7242 -85.1456 234° Southwest 452 520 43,100  Level Atlanta Center
05:35PM 34.6522 -85.2683 235° Southwest 452 520 43,100  Level Atlanta Center
05:36PM 34.5800 -85.3936 235° Southwest 452 520 43,100  Level Atlanta Center
05:37PM 34.5075 -85.5158 234° Southwest 452 520 43,100  Level Atlanta Center
05:38PM 34.4350 -85.6381 234° Southwest 452 520 43,100  Level Atlanta Center
05:39PM 34.3750 -85.7503 237° Southwest 447 514 43,100  Level Atlanta Center
05:40PM 34.2919 -85.8767 232° Southwest 447 514 43,100  Level Atlanta Center
05:41PM 34.2169 -85.9983 233° Southwest 447 514 43,100  Level Atlanta Center
05:42PM 34.1442 -86.1194 234° Southwest 447 514 43,100  Level Atlanta Center
05:43PM 34.0731 -86.2331 233° Southwest 447 514 43,100  Level Atlanta Center
05:44PM 34.0042 -86.3517 235° Southwest 442 509 43,100  Level Atlanta Center
05:45PM 33.9331 -86.4675 234° Southwest 442 509 43,100  Level Atlanta Center
05:46PM 33.8619 -86.5831 233° Southwest 442 509 43,100  Level Atlanta Center
05:47PM 33.7906 -86.6983 233° Southwest 442 509 43,100  Level Atlanta Center
05:48PM 33.7192 -86.8136 233° Southwest 442 509 43,100 -60 Level Atlanta Center
05:49PM 33.6497 -86.9286 234° Southwest 442 509 43,000 -60 Descending Atlanta Center
05:50PM 33.5803 -87.0433 234° Southwest 442 509 43,000  Level Atlanta Center
05:51PM 33.5083 -87.1581 233° Southwest 442 509 43,100  Climbing Atlanta Center
05:52PM 33.4306 -87.2697 230° Southwest 442 509 43,100  Level Atlanta Center
05:53PM 33.3631 -87.3692 231° Southwest 442 509 43,100  Level Atlanta Center
05:55PM 33.1989 -87.6164 232° Southwest 428 493 43,100  Level Memphis Center
05:56PM 33.1242 -87.7256 231° Southwest 428 493 43,100  Level Memphis Center
05:57PM 33.0492 -87.8367 231° Southwest 428 493 43,100  Level Memphis Center
05:58PM 32.9783 -87.9453 232° Southwest 428 493 43,100  Level Memphis Center
05:59PM 32.9031 -88.0536 230° Southwest 428 493 43,100  Level Memphis Center
06:00PM 32.8258 -88.1644 230° Southwest 428 493 43,100  Level Memphis Center
06:01PM 32.7503 -88.2725 230° Southwest 428 493 43,100  Level Memphis Center
06:02PM 32.6728 -88.3831 230° Southwest 428 493 43,100  Level Memphis Center
06:03PM 32.5994 -88.4931 232° Southwest 428 493 43,100  Level Memphis Center
06:04PM 32.5300 -88.6053 234° Southwest 428 493 43,100  Level Memphis Center
06:05PM 32.4922 -88.7367 251° West 416 479 43,100  Level Memphis Center
06:06PM 32.4583 -88.8653 253° West 416 479 43,100  Level Memphis Center
06:07PM 32.4453 -88.9961 263° West 405 466 43,100  Level Memphis Center
06:08PM 32.4528 -89.1189 274° West 410 472 43,100  Level Memphis Center
06:09PM 32.4456 -89.2519 266° West 410 472 43,100 -240 Level Memphis Center
06:10PM 32.3375 -89.3050 203° Southwest 357 411 42,700 -720 Descending Memphis Center
06:11PM 32.2147 -89.3333 191° South 398 458 41,700 -960 Descending Memphis Center
06:12PM 32.0917 -89.3692 194° South 426 490 40,800 -2,400 Descending Memphis Center
06:14PM 31.8783 -89.4306 194° South 460 529 35,200 -3,420 Descending Houston Center
06:15PM 31.7556 -89.4681 195° South 460 529 31,400 -3,360 Descending Houston Center
06:16PM 31.6222 -89.5422 205° Southwest 461 531 28,300 -3,000 Descending Houston Center
06:17PM 31.5289 -89.6217 216° Southwest 421 484 25,300 -2,100 Descending Houston Center
06:18PM 31.4403 -89.7067 219° Southwest 414 476 24,000 -720 Descending Houston Center
06:19PM 31.3500 -89.7919 219° Southwest 417 480 23,900 -1,080 Descending Houston Center
06:20PM 31.2556 -89.8564 210° Southwest 406 467 21,900 -2,220 Descending Houston Center
06:21PM 31.1231 -89.8614 182° South 397 457 19,400 -2,100 Descending Houston Center
06:22PM 31.0178 -89.8644 181° South 384 442 17,600 -1,740 Descending Houston Center
06:23PM 30.9247 -89.8658 181° South 344 396 15,900 -2,040 Descending Houston Center
06:24PM 30.8375 -89.8736 184° South 318 366 13,500 -2,520 Descending Houston Center
06:24PM 30.7856 -89.8872 193° South 304 350 12,100 -1,680 Descending Houston Center
06:25PM 30.7547 -89.8958 193° South 304 350 12,000 -420 Descending Houston Center
06:25PM 30.7539 -89.8958 180° South 308 354 11,900 -1,020 Descending Houston Center
06:26PM 30.6739 -89.9164 192° South 295 339 11,000 -900 Descending Houston Center
06:26PM 30.6744 -89.9175 300° West 298 343 11,000 -780 Level Houston Center
06:27PM 30.5828 -89.9419 193° South 291 335 10,200 -1,020 Descending Houston Center
06:27PM 30.5806 -89.9419 180° South 292 336 10,000 -2,520 Descending Houston Center
06:28PM 30.5067 -89.9625 193° South 282 325 7,400 -2,460 Descending Houston Center
06:29PM 30.4364 -89.9808 193° South 268 308 5,000 -2,280 Descending Houston Center
06:30PM 30.3733 -89.9944 191° South 257 296 3,300 -1,920 Descending Houston Center
06:30PM 30.3675 -89.9956 189° South 258 297 3,100 -300 Descending Houston Center
06:31PM 30.3047 -90.0047 187° South 247 284 3,000 -120 Descending Houston Center
06:31PM 30.3008 -90.0058 194° South 251 289 3,000 -420 Level Houston Center
06:32PM 30.2253 -90.0203 189° South 235 270 2,500 -720 Descending Houston Center
06:33PM 30.1844 -90.0314 193° South 202 232 1,800 -780 Descending Houston Center
06:33PM 30.1708 -90.0333 187° South 216 249 1,700 -300 Descending Houston Center
06:34PM 30.1300 -90.0314 178° South 163 188 1,500 -420 Descending Houston Center
06:34PM 30.1236 -90.0317 182° South 189 217 1,300 -840 Descending Houston Center
06:35PM 30.0883 -90.0308 179° South 146 168 700 -720 Descending Houston Center
06:35PM 30.0836 -90.0300 171° South 164 189 600 -480 Descending Houston Center
06:36PM 30.0353 -90.0308 181° South 157 181 100 -540 Descending Houston Center
06:38PM 30.0333 -90.0167 147° Southeast  Level FlightAware Approximate
06:45PM 30.0424 -90.0283 147° Southeast  Level Estimated
06:46PM 30.0424 -90.0283 147° Southeast  Level Estimated